sensor_id;sensor_type;location;lat;lon;timestamp;temperature;humidity
6556;DHT22;3311;48.32423000;14.29074500;2022-10-26T07:01:36;15.70;82.00
6556;DHT22;3311;48.32423000;14.29074500;2022-10-26T07:04:03;15.60;81.90
6556;DHT22;3311;48.32423000;14.29074500;2022-10-26T07:06:31;15.60;82.30
6556;DHT22;3311;48.32423000;14.29074500;2022-10-26T07:08:58;15.60;82.10
6556;DHT22;3311;48.32423000;14.29074500;2022-10-26T07:11:25;15.60;81.90
6556;DHT22;3311;48.32423000;14.29074500;2022-10-26T07:13:52;15.70;82.00
6556;DHT22;3311;48.32423000;14.29074500;2022-10-26T07:16:19;15.80;82.00
6556;DHT22;3311;48.32423000;14.29074500;2022-10-26T07:18:49;15.80;81.70
6556;DHT22;3311;48.32423000;14.29074500;2022-10-26T07:21:16;15.90;81.40
6556;DHT22;3311;48.32423000;14.29074500;2022-10-26T07:23:44;16.00;81.20
6556;DHT22;3311;48.32423000;14.29074500;2022-10-26T07:26:11;16.00;81.10
6556;DHT22;3311;48.32423000;14.29074500;2022-10-26T07:28:38;16.00;81.10
6556;DHT22;3311;48.32423000;14.29074500;2022-10-26T07:31:05;16.00;81.00
6556;DHT22;3311;48.32423000;14.29074500;2022-10-26T07:33:32;16.00;81.10
6556;DHT22;3311;48.32423000;14.29074500;2022-10-26T07:36:01;16.00;81.00
6556;DHT22;3311;48.32423000;14.29074500;2022-10-26T07:38:28;16.00;81.60
6556;DHT22;3311;48.32423000;14.29074500;2022-10-26T07:40:55;16.00;81.30
6556;DHT22;3311;48.32423000;14.29074500;2022-10-26T07:43:22;17.60;83.10
6556;DHT22;3311;48.32423000;14.29074500;2022-10-26T07:45:49;15.90;81.30
6556;DHT22;3311;48.32423000;14.29074500;2022-10-26T07:48:17;15.90;81.40
6556;DHT22;3311;48.32423000;14.29074500;2022-10-26T07:50:44;15.90;81.30
6556;DHT22;3311;48.32423000;14.29074500;2022-10-26T07:53:13;15.90;81.30
6556;DHT22;3311;48.32423000;14.29074500;2022-10-26T07:55:40;15.70;82.10
6556;DHT22;3311;48.32423000;14.29074500;2022-10-26T07:58:07;15.70;82.20
6556;DHT22;3311;48.32423000;14.29074500;2022-10-26T08:00:34;15.70;82.40
6556;DHT22;3311;48.32423000;14.29074500;2022-10-26T08:03:01;15.60;82.80
6556;DHT22;3311;48.32423000;14.29074500;2022-10-26T08:05:29;15.70;82.60
6556;DHT22;3311;48.32423000;14.29074500;2022-10-26T08:07:56;15.80;82.40
6556;DHT22;3311;48.32423000;14.29074500;2022-10-26T08:10:24;15.80;82.40
6556;DHT22;3311;48.32423000;14.29074500;2022-10-26T08:12:52;15.80;82.30
6556;DHT22;3311;48.32423000;14.29074500;2022-10-26T08:15:20;15.80;82.10
6556;DHT22;3311;48.32423000;14.29074500;2022-10-26T08:17:47;15.80;82.30
6556;DHT22;3311;48.32423000;14.29074500;2022-10-26T08:20:14;15.80;82.20
6556;DHT22;3311;48.32423000;14.29074500;2022-10-26T08:22:41;15.80;82.30
6556;DHT22;3311;48.32423000;14.29074500;2022-10-26T08:25:09;15.80;82.50
6556;DHT22;3311;48.32423000;14.29074500;2022-10-26T08:27:38;15.80;82.50
6556;DHT22;3311;48.32423000;14.29074500;2022-10-26T08:30:06;15.90;82.40
6556;DHT22;3311;48.32423000;14.29074500;2022-10-26T08:32:34;15.90;82.60
6556;DHT22;3311;48.32423000;14.29074500;2022-10-26T08:35:02;15.90;82.40
6556;DHT22;3311;48.32423000;14.29074500;2022-10-26T08:37:29;16.00;82.20
6556;DHT22;3311;48.32423000;14.29074500;2022-10-26T08:39:56;16.00;81.90
6556;DHT22;3311;48.32423000;14.29074500;2022-10-26T08:42:28;16.00;81.70
6556;DHT22;3311;48.32423000;14.29074500;2022-10-26T08:45:01;16.00;81.70
6556;DHT22;3311;48.32423000;14.29074500;2022-10-26T08:47:31;16.10;81.70
6556;DHT22;3311;48.32423000;14.29074500;2022-10-26T08:50:03;16.10;81.70
6556;DHT22;3311;48.32423000;14.29074500;2022-10-26T08:52:36;16.20;81.40
6556;DHT22;3311;48.32423000;14.29074500;2022-10-26T08:55:11;16.20;81.20
6556;DHT22;3311;48.32423000;14.29074500;2022-10-26T08:57:40;16.20;81.30
6556;DHT22;3311;48.32423000;14.29074500;2022-10-26T09:00:15;16.30;81.10
6556;DHT22;3311;48.32423000;14.29074500;2022-10-26T09:02:44;16.30;81.20
6556;DHT22;3311;48.32423000;14.29074500;2022-10-26T09:05:17;16.30;81.00
6556;DHT22;3311;48.32423000;14.29074500;2022-10-26T09:07:52;16.40;81.10
6556;DHT22;3311;48.32423000;14.29074500;2022-10-26T09:10:38;16.40;81.10
6556;DHT22;3311;48.32423000;14.29074500;2022-10-26T09:13:13;16.40;80.90
6556;DHT22;3311;48.32423000;14.29074500;2022-10-26T09:15:54;16.40;81.00
6556;DHT22;3311;48.32423000;14.29074500;2022-10-26T09:18:32;16.40;81.20
6556;DHT22;3311;48.32423000;14.29074500;2022-10-26T09:21:12;16.50;81.10
6556;DHT22;3311;48.32423000;14.29074500;2022-10-26T09:23:56;16.60;80.40
6556;DHT22;3311;48.32423000;14.29074500;2022-10-26T09:26:32;16.60;80.00
6556;DHT22;3311;48.32423000;14.29074500;2022-10-26T09:29:10;16.60;80.10
6556;DHT22;3311;48.32423000;14.29074500;2022-10-26T09:31:41;16.60;80.20
6556;DHT22;3311;48.32423000;14.29074500;2022-10-26T09:34:17;16.60;80.10
6556;DHT22;3311;48.32423000;14.29074500;2022-10-26T09:36:45;16.60;80.10
6556;DHT22;3311;48.32423000;14.29074500;2022-10-26T09:39:18;16.60;79.80
6556;DHT22;3311;48.32423000;14.29074500;2022-10-26T09:41:52;16.60;80.00
6556;DHT22;3311;48.32423000;14.29074500;2022-10-26T09:44:24;16.60;79.90
6556;DHT22;3311;48.32423000;14.29074500;2022-10-26T09:47:00;16.60;80.10
6556;DHT22;3311;48.32423000;14.29074500;2022-10-26T09:49:36;16.60;80.00
6556;DHT22;3311;48.32423000;14.29074500;2022-10-26T09:52:08;16.60;80.00
6556;DHT22;3311;48.32423000;14.29074500;2022-10-26T09:54:35;16.60;79.60
6556;DHT22;3311;48.32423000;14.29074500;2022-10-26T09:57:04;16.70;79.40
6556;DHT22;3311;48.32423000;14.29074500;2022-10-26T09:59:35;16.80;79.20
6556;DHT22;3311;48.32423000;14.29074500;2022-10-26T10:02:31;16.90;79.10
6556;DHT22;3311;48.32423000;14.29074500;2022-10-26T10:04:59;16.90;78.60
6556;DHT22;3311;48.32423000;14.29074500;2022-10-26T10:07:26;16.90;78.60
6556;DHT22;3311;48.32423000;14.29074500;2022-10-26T10:10:10;16.90;78.60
6556;DHT22;3311;48.32423000;14.29074500;2022-10-26T10:12:40;16.80;78.60
6556;DHT22;3311;48.32423000;14.29074500;2022-10-26T10:15:16;16.90;78.50
6556;DHT22;3311;48.32423000;14.29074500;2022-10-26T10:17:48;16.90;78.10
6556;DHT22;3311;48.32423000;14.29074500;2022-10-26T10:20:21;16.90;78.20
6556;DHT22;3311;48.32423000;14.29074500;2022-10-26T10:22:56;16.90;77.90
6556;DHT22;3311;48.32423000;14.29074500;2022-10-26T10:25:33;16.90;78.10
6556;DHT22;3311;48.32423000;14.29074500;2022-10-26T10:28:01;16.80;78.00
6556;DHT22;3311;48.32423000;14.29074500;2022-10-26T10:30:31;16.90;78.50
6556;DHT22;3311;48.32423000;14.29074500;2022-10-26T10:33:10;16.90;78.70
6556;DHT22;3311;48.32423000;14.29074500;2022-10-26T10:35:38;16.90;78.50
6556;DHT22;3311;48.32423000;14.29074500;2022-10-26T10:38:15;17.00;78.10
6556;DHT22;3311;48.32423000;14.29074500;2022-10-26T10:40:49;17.10;78.00
6556;DHT22;3311;48.32423000;14.29074500;2022-10-26T10:43:17;17.00;77.90
6556;DHT22;3311;48.32423000;14.29074500;2022-10-26T10:45:47;17.10;78.30
6556;DHT22;3311;48.32423000;14.29074500;2022-10-26T10:48:18;17.00;78.10
6556;DHT22;3311;48.32423000;14.29074500;2022-10-26T10:50:52;17.10;78.30
6556;DHT22;3311;48.32423000;14.29074500;2022-10-26T10:53:22;17.00;78.30
6556;DHT22;3311;48.32423000;14.29074500;2022-10-26T10:58:58;17.10;78.50
6556;DHT22;3311;48.32423000;14.29074500;2022-10-26T11:01:38;17.10;78.80
6556;DHT22;3311;48.32423000;14.29074500;2022-10-26T11:04:35;17.10;78.80
6556;DHT22;3311;48.32423000;14.29074500;2022-10-26T11:07:09;17.00;78.60
6556;DHT22;3311;48.32423000;14.29074500;2022-10-26T11:09:40;17.00;78.90
6556;DHT22;3311;48.32423000;14.29074500;2022-10-26T11:12:14;17.00;78.80
6556;DHT22;3311;48.32423000;14.29074500;2022-10-26T11:14:44;17.00;78.80
6556;DHT22;3311;48.32423000;14.29074500;2022-10-26T11:17:17;17.00;79.20
6556;DHT22;3311;48.32423000;14.29074500;2022-10-26T11:19:52;17.00;79.30
6556;DHT22;3311;48.32423000;14.29074500;2022-10-26T11:22:24;17.00;79.30
6556;DHT22;3311;48.32423000;14.29074500;2022-10-26T11:24:56;17.00;79.20
6556;DHT22;3311;48.32423000;14.29074500;2022-10-26T11:27:28;17.10;79.10
6556;DHT22;3311;48.32423000;14.29074500;2022-10-26T11:30:02;17.10;79.40
6556;DHT22;3311;48.32423000;14.29074500;2022-10-26T11:32:36;17.10;78.70
6556;DHT22;3311;48.32423000;14.29074500;2022-10-26T11:35:15;17.10;78.50
6556;DHT22;3311;48.32423000;14.29074500;2022-10-26T11:37:47;17.20;78.50
6556;DHT22;3311;48.32423000;14.29074500;2022-10-26T11:40:23;17.20;78.30
6556;DHT22;3311;48.32423000;14.29074500;2022-10-26T11:43:00;17.20;78.30
6556;DHT22;3311;48.32423000;14.29074500;2022-10-26T11:45:34;17.20;78.10
6556;DHT22;3311;48.32423000;14.29074500;2022-10-26T11:48:11;17.20;78.20
6556;DHT22;3311;48.32423000;14.29074500;2022-10-26T11:50:43;17.20;78.20
6556;DHT22;3311;48.32423000;14.29074500;2022-10-26T11:53:15;17.20;77.90
6556;DHT22;3311;48.32423000;14.29074500;2022-10-26T11:55:46;17.20;78.10
6556;DHT22;3311;48.32423000;14.29074500;2022-10-26T11:58:16;17.20;78.20
6556;DHT22;3311;48.32423000;14.29074500;2022-10-26T12:00:47;17.20;78.10
6556;DHT22;3311;48.32423000;14.29074500;2022-10-26T12:03:17;17.20;78.10
6556;DHT22;3311;48.32423000;14.29074500;2022-10-26T12:05:50;17.20;78.10
6556;DHT22;3311;48.32423000;14.29074500;2022-10-26T12:08:22;17.10;78.20
6556;DHT22;3311;48.32423000;14.29074500;2022-10-26T12:10:57;17.10;78.10
6556;DHT22;3311;48.32423000;14.29074500;2022-10-26T12:13:31;17.10;78.20
6556;DHT22;3311;48.32423000;14.29074500;2022-10-26T12:16:06;17.10;78.00
6556;DHT22;3311;48.32423000;14.29074500;2022-10-26T12:18:42;17.10;78.00
6556;DHT22;3311;48.32423000;14.29074500;2022-10-26T12:21:13;17.10;78.20
6556;DHT22;3311;48.32423000;14.29074500;2022-10-26T12:23:53;17.20;78.30
6556;DHT22;3311;48.32423000;14.29074500;2022-10-26T12:26:52;17.20;78.10
6556;DHT22;3311;48.32423000;14.29074500;2022-10-26T12:29:29;17.20;77.90
6556;DHT22;3311;48.32423000;14.29074500;2022-10-26T12:31:57;17.30;77.60
6556;DHT22;3311;48.32423000;14.29074500;2022-10-26T12:34:58;17.30;77.60
6556;DHT22;3311;48.32423000;14.29074500;2022-10-26T12:37:33;17.20;77.80
6556;DHT22;3311;48.32423000;14.29074500;2022-10-26T12:40:39;17.20;77.70
6556;DHT22;3311;48.32423000;14.29074500;2022-10-26T12:43:32;17.20;77.80
6556;DHT22;3311;48.32423000;14.29074500;2022-10-26T12:52:37;17.30;78.30
6556;DHT22;3311;48.32423000;14.29074500;2022-10-26T13:07:18;17.20;78.60
6556;DHT22;3311;48.32423000;14.29074500;2022-10-26T13:09:59;17.20;79.00
6556;DHT22;3311;48.32423000;14.29074500;2022-10-26T13:12:37;17.20;78.60
6556;DHT22;3311;48.32423000;14.29074500;2022-10-26T13:15:32;17.30;78.70
6556;DHT22;3311;48.32423000;14.29074500;2022-10-26T13:18:08;17.30;78.60
6556;DHT22;3311;48.32423000;14.29074500;2022-10-26T13:20:51;17.30;78.30
6556;DHT22;3311;48.32423000;14.29074500;2022-10-26T13:23:23;17.30;77.90
6556;DHT22;3311;48.32423000;14.29074500;2022-10-26T13:26:04;17.40;78.10
6556;DHT22;3311;48.32423000;14.29074500;2022-10-26T13:31:52;17.30;78.00
6556;DHT22;3311;48.32423000;14.29074500;2022-10-26T13:34:23;17.30;78.30
6556;DHT22;3311;48.32423000;14.29074500;2022-10-26T13:37:00;17.30;78.20
6556;DHT22;3311;48.32423000;14.29074500;2022-10-26T13:39:31;17.30;78.00
6556;DHT22;3311;48.32423000;14.29074500;2022-10-26T13:42:04;17.30;78.20
6556;DHT22;3311;48.32423000;14.29074500;2022-10-26T13:44:38;17.30;78.00
6556;DHT22;3311;48.32423000;14.29074500;2022-10-26T13:47:09;17.30;78.10
6556;DHT22;3311;48.32423000;14.29074500;2022-10-26T13:49:39;17.30;78.10
6556;DHT22;3311;48.32423000;14.29074500;2022-10-26T13:52:15;17.30;78.20
6556;DHT22;3311;48.32423000;14.29074500;2022-10-26T13:54:48;17.30;78.50
6556;DHT22;3311;48.32423000;14.29074500;2022-10-26T13:57:28;17.30;78.60
6556;DHT22;3311;48.32423000;14.29074500;2022-10-26T13:59:59;17.30;78.80
6556;DHT22;3311;48.32423000;14.29074500;2022-10-26T14:02:41;17.30;79.30
6556;DHT22;3311;48.32423000;14.29074500;2022-10-26T14:05:11;17.30;79.00
6556;DHT22;3311;48.32423000;14.29074500;2022-10-26T14:07:42;17.30;78.90
6556;DHT22;3311;48.32423000;14.29074500;2022-10-26T14:10:23;17.30;79.30
6556;DHT22;3311;48.32423000;14.29074500;2022-10-26T14:12:53;17.30;79.10
6556;DHT22;3311;48.32423000;14.29074500;2022-10-26T14:15:24;17.30;78.80
6556;DHT22;3311;48.32423000;14.29074500;2022-10-26T14:17:53;17.30;78.90
6556;DHT22;3311;48.32423000;14.29074500;2022-10-26T14:20:23;17.40;78.80
6556;DHT22;3311;48.32423000;14.29074500;2022-10-26T14:22:52;17.30;78.70
6556;DHT22;3311;48.32423000;14.29074500;2022-10-26T14:25:22;17.30;78.90
6556;DHT22;3311;48.32423000;14.29074500;2022-10-26T14:27:50;17.20;79.30
6556;DHT22;3311;48.32423000;14.29074500;2022-10-26T14:30:23;17.20;79.10
6556;DHT22;3311;48.32423000;14.29074500;2022-10-26T14:32:51;17.30;79.30
6556;DHT22;3311;48.32423000;14.29074500;2022-10-26T14:35:23;17.30;79.30
6556;DHT22;3311;48.32423000;14.29074500;2022-10-26T14:37:53;17.20;79.80
6556;DHT22;3311;48.32423000;14.29074500;2022-10-26T14:40:26;17.20;79.40
6556;DHT22;3311;48.32423000;14.29074500;2022-10-26T14:42:55;17.20;79.50
6556;DHT22;3311;48.32423000;14.29074500;2022-10-26T14:45:29;17.20;79.40
6556;DHT22;3311;48.32423000;14.29074500;2022-10-26T14:48:03;17.20;79.40
6556;DHT22;3311;48.32423000;14.29074500;2022-10-26T14:51:07;17.20;79.40
6556;DHT22;3311;48.32423000;14.29074500;2022-10-26T14:53:48;17.20;80.10
6556;DHT22;3311;48.32423000;14.29074500;2022-10-26T14:56:24;17.20;80.10
6556;DHT22;3311;48.32423000;14.29074500;2022-10-26T14:58:53;17.20;80.40
6556;DHT22;3311;48.32423000;14.29074500;2022-10-26T15:01:30;17.20;80.20
6556;DHT22;3311;48.32423000;14.29074500;2022-10-26T15:03:59;17.20;80.10
6556;DHT22;3311;48.32423000;14.29074500;2022-10-26T15:06:32;17.20;80.10
6556;DHT22;3311;48.32423000;14.29074500;2022-10-26T15:09:02;17.20;80.20
6556;DHT22;3311;48.32423000;14.29074500;2022-10-26T15:11:33;17.20;80.30
6556;DHT22;3311;48.32423000;14.29074500;2022-10-26T15:14:01;17.20;80.50
6556;DHT22;3311;48.32423000;14.29074500;2022-10-26T15:16:33;17.20;80.50
6556;DHT22;3311;48.32423000;14.29074500;2022-10-26T15:19:07;17.20;81.10
6556;DHT22;3311;48.32423000;14.29074500;2022-10-26T15:21:37;17.20;80.60
6556;DHT22;3311;48.32423000;14.29074500;2022-10-26T15:24:23;17.20;80.70
6556;DHT22;3311;48.32423000;14.29074500;2022-10-26T15:26:53;17.20;80.90
6556;DHT22;3311;48.32423000;14.29074500;2022-10-26T15:29:38;17.10;81.00
6556;DHT22;3311;48.32423000;14.29074500;2022-10-26T15:32:20;17.10;81.80
6556;DHT22;3311;48.32423000;14.29074500;2022-10-26T15:35:14;17.10;81.70
6556;DHT22;3311;48.32423000;14.29074500;2022-10-26T15:37:48;17.10;81.90
6556;DHT22;3311;48.32423000;14.29074500;2022-10-26T15:40:16;17.00;81.90
6556;DHT22;3311;48.32423000;14.29074500;2022-10-26T15:42:46;17.00;82.00
6556;DHT22;3311;48.32423000;14.29074500;2022-10-26T15:45:17;17.00;82.90
6556;DHT22;3311;48.32423000;14.29074500;2022-10-26T15:47:47;17.00;82.50
6556;DHT22;3311;48.32423000;14.29074500;2022-10-26T15:50:18;17.00;82.40
6556;DHT22;3311;48.32423000;14.29074500;2022-10-26T15:52:46;17.00;82.30
6556;DHT22;3311;48.32423000;14.29074500;2022-10-26T15:55:14;17.00;82.50
6556;DHT22;3311;48.32423000;14.29074500;2022-10-26T15:57:43;17.00;82.70
6556;DHT22;3311;48.32423000;14.29074500;2022-10-26T16:00:15;17.00;83.00
6556;DHT22;3311;48.32423000;14.29074500;2022-10-26T16:02:45;16.90;83.10
6556;DHT22;3311;48.32423000;14.29074500;2022-10-26T16:05:15;17.00;82.80
6556;DHT22;3311;48.32423000;14.29074500;2022-10-26T16:07:46;17.00;82.90
6556;DHT22;3311;48.32423000;14.29074500;2022-10-26T16:10:17;17.00;83.50
6556;DHT22;3311;48.32423000;14.29074500;2022-10-26T16:12:45;17.00;83.50
6556;DHT22;3311;48.32423000;14.29074500;2022-10-26T16:15:16;16.90;83.40
6556;DHT22;3311;48.32423000;14.29074500;2022-10-26T16:17:47;16.90;82.90
6556;DHT22;3311;48.32423000;14.29074500;2022-10-26T16:20:16;17.00;82.80
6556;DHT22;3311;48.32423000;14.29074500;2022-10-26T16:22:46;17.00;82.90
6556;DHT22;3311;48.32423000;14.29074500;2022-10-26T16:25:15;17.00;83.00
6556;DHT22;3311;48.32423000;14.29074500;2022-10-26T16:27:43;17.00;82.90
6556;DHT22;3311;48.32423000;14.29074500;2022-10-26T16:30:11;17.00;82.60
6556;DHT22;3311;48.32423000;14.29074500;2022-10-26T16:32:39;17.10;82.40
6556;DHT22;3311;48.32423000;14.29074500;2022-10-26T16:35:09;17.10;82.50
6556;DHT22;3311;48.32423000;14.29074500;2022-10-26T16:37:37;17.10;82.80
6556;DHT22;3311;48.32423000;14.29074500;2022-10-26T16:40:05;17.00;83.00
6556;DHT22;3311;48.32423000;14.29074500;2022-10-26T16:42:33;17.10;83.30
6556;DHT22;3311;48.32423000;14.29074500;2022-10-26T16:45:00;17.10;83.00
6556;DHT22;3311;48.32423000;14.29074500;2022-10-26T16:47:28;17.20;83.20
6556;DHT22;3311;48.32423000;14.29074500;2022-10-26T16:49:56;17.00;83.90
6556;DHT22;3311;48.32423000;14.29074500;2022-10-26T16:52:26;17.00;84.00
6556;DHT22;3311;48.32423000;14.29074500;2022-10-26T16:54:55;17.00;84.10
6556;DHT22;3311;48.32423000;14.29074500;2022-10-26T16:57:24;17.00;84.10
6556;DHT22;3311;48.32423000;14.29074500;2022-10-26T16:59:51;17.00;83.70
6556;DHT22;3311;48.32423000;14.29074500;2022-10-26T17:02:20;17.10;83.20
6556;DHT22;3311;48.32423000;14.29074500;2022-10-26T17:04:51;17.20;83.10
6556;DHT22;3311;48.32423000;14.29074500;2022-10-26T17:07:19;17.30;82.80
6556;DHT22;3311;48.32423000;14.29074500;2022-10-26T17:09:53;17.30;82.70
6556;DHT22;3311;48.32423000;14.29074500;2022-10-26T17:12:22;17.40;82.70
6556;DHT22;3311;48.32423000;14.29074500;2022-10-26T17:14:51;17.40;83.00
6556;DHT22;3311;48.32423000;14.29074500;2022-10-26T17:17:20;17.30;83.20
6556;DHT22;3311;48.32423000;14.29074500;2022-10-26T17:19:51;17.20;83.30
6556;DHT22;3311;48.32423000;14.29074500;2022-10-26T17:22:18;17.10;83.90
6556;DHT22;3311;48.32423000;14.29074500;2022-10-26T17:24:46;17.00;84.30
6556;DHT22;3311;48.32423000;14.29074500;2022-10-26T17:27:15;17.00;84.20
6556;DHT22;3311;48.32423000;14.29074500;2022-10-26T17:29:43;17.00;84.20
6556;DHT22;3311;48.32423000;14.29074500;2022-10-26T17:32:12;17.00;84.00
6556;DHT22;3311;48.32423000;14.29074500;2022-10-26T17:34:41;17.00;84.30
6556;DHT22;3311;48.32423000;14.29074500;2022-10-26T17:37:09;17.00;84.40
6556;DHT22;3311;48.32423000;14.29074500;2022-10-26T17:39:37;17.10;84.40
6556;DHT22;3311;48.32423000;14.29074500;2022-10-26T17:42:04;17.00;84.90
6556;DHT22;3311;48.32423000;14.29074500;2022-10-26T17:44:34;16.90;84.90
6556;DHT22;3311;48.32423000;14.29074500;2022-10-26T17:47:04;17.00;84.60
6556;DHT22;3311;48.32423000;14.29074500;2022-10-26T17:49:32;17.00;84.30
6556;DHT22;3311;48.32423000;14.29074500;2022-10-26T17:51:59;17.10;84.50
6556;DHT22;3311;48.32423000;14.29074500;2022-10-26T17:54:27;17.10;84.60
6556;DHT22;3311;48.32423000;14.29074500;2022-10-26T17:56:55;17.10;84.60
6556;DHT22;3311;48.32423000;14.29074500;2022-10-26T17:59:23;17.00;84.90
6556;DHT22;3311;48.32423000;14.29074500;2022-10-26T18:01:51;16.90;84.90
6556;DHT22;3311;48.32423000;14.29074500;2022-10-26T18:04:20;16.90;85.10
6556;DHT22;3311;48.32423000;14.29074500;2022-10-26T18:06:50;16.90;85.30
6556;DHT22;3311;48.32423000;14.29074500;2022-10-26T18:09:22;16.80;85.40
6556;DHT22;3311;48.32423000;14.29074500;2022-10-26T18:11:50;16.80;85.40
6556;DHT22;3311;48.32423000;14.29074500;2022-10-26T18:14:22;16.80;85.40
6556;DHT22;3311;48.32423000;14.29074500;2022-10-26T18:16:52;16.90;85.20
6556;DHT22;3311;48.32423000;14.29074500;2022-10-26T18:19:20;16.90;85.00
6556;DHT22;3311;48.32423000;14.29074500;2022-10-26T18:21:49;16.90;84.80
6556;DHT22;3311;48.32423000;14.29074500;2022-10-26T18:24:19;17.00;84.70
6556;DHT22;3311;48.32423000;14.29074500;2022-10-26T18:26:48;17.00;84.80
6556;DHT22;3311;48.32423000;14.29074500;2022-10-26T18:29:16;17.00;84.80
6556;DHT22;3311;48.32423000;14.29074500;2022-10-26T18:31:43;16.90;85.00
6556;DHT22;3311;48.32423000;14.29074500;2022-10-26T18:34:16;16.80;85.20
6556;DHT22;3311;48.32423000;14.29074500;2022-10-26T18:36:43;16.80;85.30
6556;DHT22;3311;48.32423000;14.29074500;2022-10-26T18:39:16;16.80;85.40
6556;DHT22;3311;48.32423000;14.29074500;2022-10-26T18:41:46;16.70;85.60
6556;DHT22;3311;48.32423000;14.29074500;2022-10-26T18:44:13;16.70;85.70
6556;DHT22;3311;48.32423000;14.29074500;2022-10-26T18:46:45;16.80;85.50
6556;DHT22;3311;48.32423000;14.29074500;2022-10-26T18:49:19;16.80;85.10
6556;DHT22;3311;48.32423000;14.29074500;2022-10-26T18:51:47;16.90;84.90
6556;DHT22;3311;48.32423000;14.29074500;2022-10-26T18:54:17;17.10;84.50
6556;DHT22;3311;48.32423000;14.29074500;2022-10-26T18:56:47;17.00;84.60
6556;DHT22;3311;48.32423000;14.29074500;2022-10-26T18:59:14;16.90;84.90
6556;DHT22;3311;48.32423000;14.29074500;2022-10-26T19:01:41;16.80;85.10
6556;DHT22;3311;48.32423000;14.29074500;2022-10-26T19:04:11;16.90;85.10
6556;DHT22;3311;48.32423000;14.29074500;2022-10-26T19:06:42;16.80;85.10
6556;DHT22;3311;48.32423000;14.29074500;2022-10-26T19:09:14;16.80;85.20
6556;DHT22;3311;48.32423000;14.29074500;2022-10-26T19:11:42;16.80;85.10
6556;DHT22;3311;48.32423000;14.29074500;2022-10-26T19:14:11;16.80;85.20
6556;DHT22;3311;48.32423000;14.29074500;2022-10-26T19:16:39;16.80;85.30
6556;DHT22;3311;48.32423000;14.29074500;2022-10-26T19:19:07;16.80;85.40
6556;DHT22;3311;48.32423000;14.29074500;2022-10-26T19:21:35;16.80;85.30
6556;DHT22;3311;48.32423000;14.29074500;2022-10-26T19:24:10;16.80;85.20
6556;DHT22;3311;48.32423000;14.29074500;2022-10-26T19:26:38;16.70;85.30
6556;DHT22;3311;48.32423000;14.29074500;2022-10-26T19:29:05;16.60;85.60
6556;DHT22;3311;48.32423000;14.29074500;2022-10-26T19:31:34;16.70;85.70
6556;DHT22;3311;48.32423000;14.29074500;2022-10-26T19:34:03;16.70;85.60
6556;DHT22;3311;48.32423000;14.29074500;2022-10-26T19:36:33;16.70;85.40
6556;DHT22;3311;48.32423000;14.29074500;2022-10-26T19:39:01;16.70;85.30
6556;DHT22;3311;48.32423000;14.29074500;2022-10-26T19:41:31;16.80;85.30
6556;DHT22;3311;48.32423000;14.29074500;2022-10-26T19:43:59;16.70;85.30
6556;DHT22;3311;48.32423000;14.29074500;2022-10-26T19:46:28;16.70;85.30
6556;DHT22;3311;48.32423000;14.29074500;2022-10-26T19:48:58;16.70;85.40
6556;DHT22;3311;48.32423000;14.29074500;2022-10-26T19:51:27;16.70;85.40
6556;DHT22;3311;48.32423000;14.29074500;2022-10-26T19:53:56;16.70;85.20
6556;DHT22;3311;48.32423000;14.29074500;2022-10-26T19:56:27;16.70;85.30
6556;DHT22;3311;48.32423000;14.29074500;2022-10-26T19:58:56;16.70;85.30
6556;DHT22;3311;48.32423000;14.29074500;2022-10-26T20:01:24;16.70;85.90
6556;DHT22;3311;48.32423000;14.29074500;2022-10-26T20:03:52;16.70;85.20
6556;DHT22;3311;48.32423000;14.29074500;2022-10-26T20:06:19;16.70;85.30
6556;DHT22;3311;48.32423000;14.29074500;2022-10-26T20:08:47;16.70;85.30
6556;DHT22;3311;48.32423000;14.29074500;2022-10-26T20:11:16;16.70;85.30
6556;DHT22;3311;48.32423000;14.29074500;2022-10-26T20:13:45;16.70;85.30
6556;DHT22;3311;48.32423000;14.29074500;2022-10-26T20:16:16;16.70;85.50
6556;DHT22;3311;48.32423000;14.29074500;2022-10-26T20:18:44;16.60;85.30
6556;DHT22;3311;48.32423000;14.29074500;2022-10-26T20:21:12;16.60;85.20
6556;DHT22;3311;48.32423000;14.29074500;2022-10-26T20:23:39;16.60;85.30
6556;DHT22;3311;48.32423000;14.29074500;2022-10-26T20:26:07;16.60;85.40
6556;DHT22;3311;48.32423000;14.29074500;2022-10-26T20:28:35;16.60;85.20
6556;DHT22;3311;48.32423000;14.29074500;2022-10-26T20:31:03;16.60;85.20
6556;DHT22;3311;48.32423000;14.29074500;2022-10-26T20:33:32;16.60;85.10
6556;DHT22;3311;48.32423000;14.29074500;2022-10-26T20:36:00;16.60;85.20
6556;DHT22;3311;48.32423000;14.29074500;2022-10-26T20:38:27;16.60;85.10
6556;DHT22;3311;48.32423000;14.29074500;2022-10-26T20:40:57;16.60;85.00
6556;DHT22;3311;48.32423000;14.29074500;2022-10-26T20:43:25;16.70;85.10
6556;DHT22;3311;48.32423000;14.29074500;2022-10-26T20:45:56;16.60;85.00
6556;DHT22;3311;48.32423000;14.29074500;2022-10-26T20:48:26;16.60;85.10
6556;DHT22;3311;48.32423000;14.29074500;2022-10-26T20:51:02;16.60;85.20
6556;DHT22;3311;48.32423000;14.29074500;2022-10-26T20:53:35;16.60;85.30
6556;DHT22;3311;48.32423000;14.29074500;2022-10-26T20:56:07;16.60;85.30
6556;DHT22;3311;48.32423000;14.29074500;2022-10-26T20:58:40;16.60;85.30
6556;DHT22;3311;48.32423000;14.29074500;2022-10-26T21:01:17;16.60;85.30
6556;DHT22;3311;48.32423000;14.29074500;2022-10-26T21:03:47;16.60;85.30
6556;DHT22;3311;48.32423000;14.29074500;2022-10-26T21:06:16;16.60;85.30
6556;DHT22;3311;48.32423000;14.29074500;2022-10-26T21:08:44;16.60;85.30
6556;DHT22;3311;48.32423000;14.29074500;2022-10-26T21:11:11;16.60;85.20
6556;DHT22;3311;48.32423000;14.29074500;2022-10-26T21:13:38;16.60;85.30
6556;DHT22;3311;48.32423000;14.29074500;2022-10-26T21:16:06;16.60;85.20
6556;DHT22;3311;48.32423000;14.29074500;2022-10-26T21:18:34;16.60;85.10
6556;DHT22;3311;48.32423000;14.29074500;2022-10-26T21:21:01;16.60;85.10
6556;DHT22;3311;48.32423000;14.29074500;2022-10-26T21:23:30;16.60;85.20